createdAt,value
2023-03-08T00:02:27.469Z,91.32
2023-03-08T00:04:59.066Z,85.85
2023-03-08T00:07:30.219Z,88.30
2023-03-08T00:10:01.025Z,85.43
2023-03-08T00:12:32.988Z,84.63
2023-03-08T00:15:04.196Z,85.43
2023-03-08T00:17:37.807Z,84.10
2023-03-08T00:20:11.518Z,87.07
2023-03-08T00:22:43.795Z,82.28
2023-03-08T00:25:18.058Z,86.85
2023-03-08T00:27:49.251Z,86.72
2023-03-08T00:30:20.275Z,89.90
2023-03-08T00:32:51.059Z,84.25
2023-03-08T00:35:21.897Z,85.63
2023-03-08T00:37:52.713Z,86.53
2023-03-08T00:40:23.337Z,84.70
2023-03-08T00:42:59.075Z,88.07
2023-03-08T00:45:30.100Z,85.45
2023-03-08T00:48:01.135Z,90.07
2023-03-08T00:50:32.403Z,93.90
2023-03-08T00:53:03.511Z,90.70
2023-03-08T00:58:08.097Z,89.10
2023-03-08T01:00:39.578Z,88.10
2023-03-08T01:03:10.411Z,83.30
2023-03-08T01:05:46.567Z,96.38
2023-03-08T01:08:19.457Z,93.78
2023-03-08T01:11:01.717Z,94.50
2023-03-08T01:13:54.538Z,88.47
2023-03-08T01:16:34.105Z,93.45
2023-03-08T01:19:07.508Z,89.50
2023-03-08T01:21:40.417Z,91.75
2023-03-08T01:24:12.419Z,89.03
2023-03-08T01:26:43.444Z,93.30
2023-03-08T01:29:14.235Z,89.10
2023-03-08T01:31:45.308Z,92.72
2023-03-08T01:34:17.093Z,92.35
2023-03-08T01:36:48.206Z,94.53
2023-03-08T01:39:22.108Z,90.72
2023-03-08T01:41:53.117Z,91.90
2023-03-08T01:44:24.672Z,88.93
2023-03-08T01:46:57.080Z,95.13
2023-03-08T01:50:07.901Z,94.38
2023-03-08T01:53:03.167Z,97.07
2023-03-08T01:55:36.940Z,100.13
2023-03-08T01:58:07.902Z,92.47
2023-03-08T02:00:41.264Z,95.65
2023-03-08T02:03:13.990Z,98.63
2023-03-08T02:05:46.035Z,92.63
2023-03-08T02:08:24.081Z,94.32
2023-03-08T02:10:56.826Z,97.05
2023-03-08T02:13:28.269Z,97.00
2023-03-08T02:16:02.295Z,83.80
2023-03-08T02:18:34.143Z,95.40
2023-03-08T02:21:05.416Z,108.05
2023-03-08T02:23:37.869Z,114.35
2023-03-08T02:26:09.185Z,112.18
2023-03-08T02:28:41.946Z,113.25
2023-03-08T02:31:20.003Z,113.78
2023-03-08T02:34:11.544Z,106.75
2023-03-08T02:36:42.461Z,111.35
2023-03-08T02:42:02.282Z,107.38
2023-03-08T02:44:36.553Z,105.13
2023-03-08T02:47:10.157Z,108.75
2023-03-08T02:49:47.418Z,108.60
2023-03-08T02:52:18.606Z,107.05
2023-03-08T02:54:50.573Z,107.15
2023-03-08T02:57:21.841Z,100.47
2023-03-08T02:59:57.612Z,105.82
2023-03-08T03:05:04.667Z,109.13
2023-03-08T03:07:52.306Z,121.73
2023-03-08T03:13:09.217Z,118.95
2023-03-08T03:15:41.515Z,125.32
2023-03-08T03:18:13.008Z,117.63
2023-03-08T03:20:44.022Z,111.18
2023-03-08T03:23:16.448Z,117.47
2023-03-08T03:25:53.997Z,120.57
2023-03-08T03:28:26.025Z,121.15
2023-03-08T03:30:58.461Z,121.55
2023-03-08T03:33:30.744Z,121.63
2023-03-08T03:36:03.422Z,125.18
2023-03-08T03:38:38.031Z,121.40
2023-03-08T03:41:12.922Z,126.15
2023-03-08T03:43:44.922Z,134.60
2023-03-08T03:46:21.730Z,126.97
2023-03-08T03:48:56.682Z,126.65
2023-03-08T03:51:30.323Z,136.57
2023-03-08T03:54:12.239Z,134.98
2023-03-08T03:57:04.493Z,131.05
2023-03-08T03:59:39.998Z,124.65
2023-03-08T04:02:11.520Z,127.60
2023-03-08T04:04:52.507Z,129.40
2023-03-08T04:07:47.209Z,123.10
2023-03-08T04:10:19.272Z,131.43
2023-03-08T04:12:52.170Z,127.13
2023-03-08T04:18:00.307Z,129.10
2023-03-08T04:20:34.070Z,124.07
2023-03-08T04:23:07.541Z,126.47
2023-03-08T04:25:42.848Z,123.65
2023-03-08T04:28:16.462Z,125.60
2023-03-08T04:30:48.187Z,120.70
2023-03-08T04:33:21.243Z,120.10
2023-03-08T04:38:28.187Z,136.50
2023-03-08T04:41:06.458Z,129.95
2023-03-08T04:43:59.553Z,130.90
2023-03-08T04:46:40.740Z,131.57
2023-03-08T04:49:14.079Z,132.02
2023-03-08T04:51:48.914Z,138.88
2023-03-08T04:54:20.208Z,144.10
2023-03-08T04:56:57.103Z,145.13
2023-03-08T04:59:29.333Z,135.57
2023-03-08T05:02:03.202Z,140.02
2023-03-08T05:04:36.731Z,137.15
2023-03-08T05:07:11.522Z,140.05
2023-03-08T05:09:43.227Z,139.35
2023-03-08T05:12:14.444Z,140.80
2023-03-08T05:14:58.600Z,133.18
2023-03-08T05:17:30.894Z,134.63
2023-03-08T05:20:03.165Z,106.45
2023-03-08T05:22:55.453Z,136.55
2023-03-08T05:25:32.522Z,137.52
2023-03-08T05:28:06.060Z,146.50
2023-03-08T05:30:38.037Z,142.65
2023-03-08T05:33:10.000Z,144.73
2023-03-08T05:35:42.018Z,142.43
2023-03-08T05:38:13.255Z,146.63
2023-03-08T05:40:44.590Z,142.65
2023-03-08T05:43:19.098Z,139.90
2023-03-08T05:46:12.240Z,138.02
2023-03-08T05:48:45.201Z,127.30
2023-03-08T05:51:20.509Z,142.35
2023-03-08T05:54:03.501Z,137.13
2023-03-08T05:56:48.868Z,137.75
2023-03-08T05:59:30.903Z,140.98
2023-03-08T06:02:26.604Z,149.27
2023-03-08T06:04:59.253Z,144.77
2023-03-08T06:07:30.919Z,147.40
2023-03-08T06:10:10.228Z,138.52
2023-03-08T06:12:41.946Z,136.63
2023-03-08T06:17:50.815Z,137.38
2023-03-08T06:20:23.971Z,142.60
2023-03-08T06:22:55.997Z,143.82
2023-03-08T06:25:28.756Z,140.25
2023-03-08T06:27:59.793Z,145.98
2023-03-08T06:30:46.624Z,149.45
2023-03-08T06:33:23.171Z,141.10
2023-03-08T06:36:07.065Z,144.20
2023-03-08T06:38:40.500Z,145.50
2023-03-08T06:41:15.212Z,143.52
2023-03-08T06:43:47.389Z,132.90
2023-03-08T06:46:20.787Z,131.13
2023-03-08T06:48:52.899Z,138.30
2023-03-08T06:51:24.487Z,140.35
2023-03-08T06:53:55.537Z,144.40
2023-03-08T06:56:29.836Z,145.07
2023-03-08T06:59:02.344Z,133.90
2023-03-08T07:01:33.372Z,133.80
2023-03-08T07:04:04.526Z,139.00
2023-03-08T07:06:35.998Z,136.63
2023-03-08T07:09:08.416Z,138.10
2023-03-08T07:11:41.045Z,147.88
2023-03-08T07:14:14.864Z,140.98
2023-03-08T07:16:46.071Z,152.30
2023-03-08T07:19:18.314Z,149.32
2023-03-08T07:21:51.391Z,151.40
2023-03-08T07:24:22.774Z,152.15
2023-03-08T07:26:56.360Z,145.43
2023-03-08T07:29:29.577Z,146.70
2023-03-08T07:32:00.909Z,148.65
2023-03-08T07:34:32.224Z,162.35
2023-03-08T07:37:03.549Z,145.98
2023-03-08T07:39:34.838Z,152.15
2023-03-08T07:42:06.241Z,146.73
2023-03-08T07:44:38.935Z,140.50
2023-03-08T07:47:10.795Z,142.45
2023-03-08T07:49:42.011Z,144.25
2023-03-08T07:54:57.427Z,140.70
2023-03-08T07:57:28.531Z,158.07
2023-03-08T07:59:59.688Z,145.68
2023-03-08T08:02:32.074Z,150.02
2023-03-08T08:05:12.045Z,159.70
2023-03-08T08:07:49.957Z,152.45
2023-03-08T08:10:22.723Z,151.38
2023-03-08T08:12:57.304Z,145.63
2023-03-08T08:15:29.955Z,145.60
2023-03-08T08:18:01.829Z,148.30
2023-03-08T08:20:33.067Z,148.93
2023-03-08T08:23:07.825Z,150.65
2023-03-08T08:25:42.385Z,149.18
2023-03-08T08:28:20.096Z,156.07
2023-03-08T08:31:09.842Z,147.20
2023-03-08T08:33:41.203Z,150.55
2023-03-08T08:36:26.323Z,145.25
2023-03-08T08:39:03.968Z,150.70
2023-03-08T08:41:35.204Z,151.00
2023-03-08T08:44:06.814Z,152.52
2023-03-08T08:46:38.499Z,150.30
2023-03-08T08:49:17.417Z,151.30
2023-03-08T08:52:17.091Z,148.95
2023-03-08T08:54:48.168Z,170.77
2023-03-08T08:57:19.221Z,143.30
2023-03-08T08:59:50.602Z,145.95
2023-03-08T09:02:21.772Z,174.50
2023-03-08T09:04:52.880Z,145.25
2023-03-08T09:07:32.529Z,313.05
2023-03-08T09:10:04.801Z,163.27
2023-03-08T09:12:36.156Z,172.77
2023-03-08T09:15:08.739Z,150.73
2023-03-08T09:17:41.349Z,149.90
2023-03-08T09:20:13.284Z,132.65
2023-03-08T09:22:44.689Z,122.13
2023-03-08T09:25:17.487Z,135.55
2023-03-08T09:27:50.468Z,108.85
2023-03-08T09:30:22.904Z,127.40
2023-03-08T09:32:54.174Z,128.73
2023-03-08T09:35:25.322Z,124.43
2023-03-08T09:37:56.661Z,118.22
2023-03-08T09:40:30.400Z,122.38
2023-03-08T09:43:06.684Z,123.80
2023-03-08T09:45:38.168Z,129.65
2023-03-08T09:48:32.278Z,126.43
2023-03-08T09:51:10.613Z,125.13
2023-03-08T09:54:05.758Z,125.18
2023-03-08T09:56:52.288Z,124.85
2023-03-08T09:59:54.934Z,116.80
2023-03-08T10:02:49.697Z,126.40
2023-03-08T10:05:58.170Z,127.70
2023-03-08T10:08:47.052Z,126.22
2023-03-08T10:11:38.241Z,132.73
2023-03-08T10:14:32.532Z,127.13
2023-03-08T10:17:11.889Z,125.90
2023-03-08T10:20:10.352Z,136.88
2023-03-08T10:22:44.147Z,118.75
2023-03-08T10:28:01.068Z,121.10
2023-03-08T10:30:42.284Z,120.70
2023-03-08T10:33:16.399Z,120.68
2023-03-08T10:36:07.907Z,119.75
2023-03-08T10:38:40.172Z,128.73
2023-03-08T10:41:18.799Z,116.03
2023-03-08T10:44:00.546Z,119.60
2023-03-08T10:46:49.911Z,122.50
2023-03-08T10:49:27.960Z,124.35
2023-03-08T10:52:01.582Z,119.65
2023-03-08T10:54:32.755Z,123.72
2023-03-08T10:57:05.269Z,123.55
2023-03-08T10:59:39.211Z,124.50
2023-03-08T11:02:16.669Z,127.73
2023-03-08T11:04:56.860Z,118.57
2023-03-08T11:07:34.166Z,110.82
2023-03-08T11:10:26.028Z,117.80
2023-03-08T11:13:48.495Z,126.43
2023-03-08T11:16:57.849Z,125.20
2023-03-08T11:19:40.138Z,120.75
2023-03-08T11:22:11.303Z,126.38
2023-03-08T11:25:00.493Z,116.60
2023-03-08T11:28:04.667Z,121.88
2023-03-08T11:30:44.770Z,116.55
2023-03-08T11:33:41.868Z,120.80
2023-03-08T11:36:30.241Z,132.55
2023-03-08T11:39:21.430Z,122.70
2023-03-08T11:42:26.298Z,125.63
2023-03-08T11:47:52.346Z,124.68
2023-03-08T11:50:27.803Z,129.45
2023-03-08T11:53:44.068Z,103.13
2023-03-08T11:56:21.509Z,131.80
2023-03-08T11:59:06.506Z,127.50
2023-03-08T12:02:04.838Z,123.55
2023-03-08T12:05:20.500Z,120.30
2023-03-08T12:08:02.311Z,123.70
2023-03-08T12:11:19.856Z,122.15
2023-03-08T12:14:18.176Z,123.65
2023-03-08T12:17:22.529Z,121.30
2023-03-08T12:19:54.037Z,118.93
2023-03-08T12:22:36.971Z,129.35
2023-03-08T12:25:20.123Z,119.50
2023-03-08T12:28:06.522Z,125.18
2023-03-08T12:30:59.766Z,125.82
2023-03-08T12:36:32.070Z,102.22
2023-03-08T12:39:26.726Z,120.32
2023-03-08T12:42:17.890Z,128.30
2023-03-08T12:44:51.291Z,123.05
2023-03-08T12:47:24.969Z,132.55
2023-03-08T12:49:58.685Z,126.25
2023-03-08T12:52:36.444Z,127.35
2023-03-08T12:58:18.609Z,128.48
2023-03-08T13:01:02.269Z,120.25
2023-03-08T13:03:44.295Z,132.32
2023-03-08T13:06:25.961Z,132.77
2023-03-08T13:09:15.190Z,120.20
2023-03-08T13:11:53.884Z,130.60
2023-03-08T13:14:43.582Z,133.00
2023-03-08T13:17:32.340Z,131.85
2023-03-08T13:20:13.121Z,125.45
2023-03-08T13:23:01.053Z,133.30
2023-03-08T13:25:57.153Z,130.43
2023-03-08T13:28:47.279Z,124.53
2023-03-08T13:31:26.140Z,132.52
2023-03-08T13:34:01.706Z,134.15
2023-03-08T13:36:35.188Z,130.35
2023-03-08T13:39:29.792Z,133.63
2023-03-08T13:42:14.712Z,127.05
2023-03-08T13:45:19.674Z,127.25
2023-03-08T13:47:51.106Z,128.35
2023-03-08T13:50:31.407Z,121.95
2023-03-08T13:53:38.161Z,123.45
2023-03-08T13:56:12.018Z,122.70
2023-03-08T13:58:48.707Z,125.93
2023-03-08T14:01:25.891Z,126.30
2023-03-08T14:04:01.472Z,126.07
2023-03-08T14:06:38.284Z,125.07
2023-03-08T14:09:10.221Z,128.43
2023-03-08T14:12:05.999Z,125.30
2023-03-08T14:14:46.011Z,130.40
2023-03-08T14:17:28.855Z,128.10
2023-03-08T14:20:05.200Z,126.40
2023-03-08T14:22:40.464Z,124.38
2023-03-08T14:25:29.503Z,130.02
2023-03-08T14:28:01.367Z,122.85
2023-03-08T14:30:36.404Z,121.10
2023-03-08T14:33:18.421Z,109.90
2023-03-08T14:35:59.536Z,116.63
2023-03-08T14:38:35.632Z,131.23
2023-03-08T14:41:13.309Z,128.30
2023-03-08T14:43:51.183Z,121.72
2023-03-08T14:46:27.060Z,122.20
2023-03-08T14:49:04.828Z,125.80
2023-03-08T14:51:45.978Z,129.52
2023-03-08T14:54:36.340Z,129.68
2023-03-08T14:57:32.078Z,130.18
2023-03-08T15:00:17.112Z,126.40
2023-03-08T15:02:49.466Z,131.80
2023-03-08T15:05:29.102Z,129.23
2023-03-08T15:08:02.573Z,132.88
2023-03-08T15:10:55.582Z,127.40
2023-03-08T15:13:27.297Z,139.90
2023-03-08T15:15:58.555Z,127.13
2023-03-08T15:18:33.013Z,134.38
2023-03-08T15:21:04.647Z,130.15
2023-03-08T15:23:56.503Z,128.32
2023-03-08T15:26:31.619Z,134.75
2023-03-08T15:29:06.213Z,135.43
2023-03-08T15:31:37.764Z,130.98
2023-03-08T15:34:08.986Z,131.57
2023-03-08T15:36:40.317Z,134.18
2023-03-08T15:39:14.702Z,132.48
2023-03-08T15:41:46.144Z,126.63
2023-03-08T15:44:19.028Z,131.80
2023-03-08T15:46:52.629Z,125.68
2023-03-08T15:49:24.229Z,131.80
2023-03-08T15:51:56.657Z,129.00
2023-03-08T15:54:27.893Z,126.43
2023-03-08T15:57:19.327Z,129.43
2023-03-08T15:59:52.054Z,133.35
2023-03-08T16:02:23.646Z,125.57
2023-03-08T16:04:57.120Z,128.55
2023-03-08T16:07:28.486Z,131.85
2023-03-08T16:10:01.966Z,132.45
2023-03-08T16:12:34.297Z,124.45
2023-03-08T16:15:12.451Z,124.57
2023-03-08T16:18:03.537Z,107.65
2023-03-08T16:20:54.475Z,116.75
2023-03-08T16:23:26.066Z,123.18
2023-03-08T16:26:14.605Z,128.65
2023-03-08T16:28:48.014Z,123.47
2023-03-08T16:31:23.850Z,116.68
2023-03-08T16:33:54.924Z,124.03
2023-03-08T16:36:26.296Z,119.30
2023-03-08T16:38:57.472Z,130.18
2023-03-08T16:41:30.833Z,130.95
2023-03-08T16:44:02.285Z,123.72
2023-03-08T16:46:33.783Z,131.02
2023-03-08T16:49:07.861Z,126.05
2023-03-08T16:51:59.449Z,120.55
2023-03-08T16:54:50.271Z,130.02
2023-03-08T16:57:23.125Z,122.20
2023-03-08T16:59:54.222Z,128.48
2023-03-08T17:02:25.604Z,130.10
2023-03-08T17:04:56.735Z,116.70
2023-03-08T17:07:27.610Z,124.53
2023-03-08T17:09:59.694Z,131.13
2023-03-08T17:12:30.716Z,127.38
2023-03-08T17:15:01.869Z,125.85
2023-03-08T17:17:33.132Z,120.43
2023-03-08T17:20:04.234Z,120.45
2023-03-08T17:22:36.180Z,125.35
2023-03-08T17:25:07.600Z,137.02
2023-03-08T17:27:39.088Z,127.57
2023-03-08T17:30:11.846Z,109.18
2023-03-08T17:32:43.212Z,126.68
2023-03-08T17:35:14.592Z,126.65
2023-03-08T17:37:46.025Z,125.28
2023-03-08T17:40:17.281Z,125.40
2023-03-08T17:42:52.407Z,129.05
2023-03-08T17:45:23.811Z,131.93
2023-03-08T17:48:02.248Z,127.43
2023-03-08T17:50:35.841Z,126.13
2023-03-08T17:53:07.012Z,126.13
2023-03-08T17:55:39.997Z,120.35
2023-03-08T17:58:12.394Z,129.10
2023-03-08T18:00:43.532Z,129.73
2023-03-08T18:03:14.554Z,126.75
2023-03-08T18:05:54.932Z,124.55
2023-03-08T18:08:25.677Z,126.20
2023-03-08T18:10:56.646Z,128.48
2023-03-08T18:13:28.004Z,121.47
2023-03-08T18:15:58.859Z,128.38
2023-03-08T18:18:29.782Z,139.18
2023-03-08T18:21:12.757Z,130.30
2023-03-08T18:23:44.694Z,128.05
2023-03-08T18:26:17.626Z,129.05
2023-03-08T18:28:49.020Z,138.93
2023-03-08T18:31:24.995Z,131.73
2023-03-08T18:34:05.213Z,124.07
2023-03-08T18:36:37.218Z,127.30
2023-03-08T18:39:10.216Z,129.55
2023-03-08T18:41:41.729Z,120.03
2023-03-08T18:44:15.157Z,127.85
2023-03-08T18:46:48.939Z,129.82
2023-03-08T18:49:20.182Z,125.95
2023-03-08T18:51:51.139Z,111.30
2023-03-08T18:54:22.322Z,125.60
2023-03-08T18:56:58.733Z,124.22
2023-03-08T18:59:32.926Z,119.55
2023-03-08T19:02:04.476Z,121.90
2023-03-08T19:04:39.926Z,121.03
2023-03-08T19:07:11.554Z,124.65
2023-03-08T19:09:45.088Z,121.53
2023-03-08T19:12:16.491Z,121.38
2023-03-08T19:14:50.962Z,115.18
2023-03-08T19:17:21.742Z,126.20
2023-03-08T19:19:52.387Z,117.15
2023-03-08T19:22:23.433Z,117.88
2023-03-08T19:24:55.479Z,122.88
2023-03-08T19:27:26.538Z,128.90
2023-03-08T19:29:57.491Z,129.75
2023-03-08T19:32:29.030Z,131.52
2023-03-08T19:34:59.785Z,127.93
2023-03-08T19:37:30.461Z,132.02
2023-03-08T19:40:01.693Z,126.55
2023-03-08T19:42:33.395Z,130.05
2023-03-08T19:45:04.684Z,133.75
2023-03-08T19:47:35.651Z,128.13
2023-03-08T19:50:08.429Z,130.85
2023-03-08T19:52:39.503Z,130.45
2023-03-08T19:55:10.837Z,127.15
2023-03-08T19:57:43.720Z,118.43
2023-03-08T20:00:15.270Z,118.70
2023-03-08T20:03:05.959Z,119.57
2023-03-08T20:05:45.961Z,128.40
2023-03-08T20:08:18.694Z,123.90
2023-03-08T20:10:50.966Z,122.45
2023-03-08T20:13:22.023Z,114.43
2023-03-08T20:15:52.899Z,113.53
2023-03-08T20:18:23.948Z,120.18
2023-03-08T20:20:54.743Z,117.05
2023-03-08T20:23:25.876Z,122.60
2023-03-08T20:25:56.750Z,110.53
2023-03-08T20:28:27.843Z,117.72
2023-03-08T20:30:58.953Z,121.18
2023-03-08T20:33:29.777Z,119.15
2023-03-08T20:36:05.073Z,124.53
2023-03-08T20:38:36.308Z,116.85
2023-03-08T20:41:13.442Z,118.88
2023-03-08T20:43:46.173Z,120.50
2023-03-08T20:46:19.069Z,124.13
2023-03-08T20:48:50.618Z,123.85
2023-03-08T20:51:23.248Z,122.55
2023-03-08T20:53:56.397Z,121.50
2023-03-08T20:56:28.050Z,127.67
2023-03-08T20:59:01.686Z,129.85
2023-03-08T21:01:34.717Z,130.10
2023-03-08T21:04:06.772Z,126.00
2023-03-08T21:06:37.748Z,126.63
2023-03-08T21:09:08.482Z,121.10
2023-03-08T21:11:39.678Z,122.57
2023-03-08T21:14:11.522Z,127.30
2023-03-08T21:16:42.696Z,123.57
2023-03-08T21:19:13.773Z,122.95
2023-03-08T21:21:49.899Z,131.63
2023-03-08T21:24:24.370Z,121.07
2023-03-08T21:26:55.730Z,120.35
2023-03-08T21:29:29.199Z,120.70
2023-03-08T21:32:01.100Z,119.47
2023-03-08T21:34:33.387Z,121.57
2023-03-08T21:37:04.422Z,133.18
2023-03-08T21:39:35.126Z,118.78
2023-03-08T21:42:06.442Z,128.75
2023-03-08T21:44:37.689Z,127.05
2023-03-08T21:47:09.205Z,127.63
2023-03-08T21:49:40.002Z,126.13
2023-03-08T21:52:11.375Z,125.93
2023-03-08T21:54:42.357Z,127.93
2023-03-08T21:57:13.310Z,124.28
2023-03-08T21:59:44.130Z,119.82
2023-03-08T22:02:15.436Z,118.78
2023-03-08T22:04:46.564Z,125.68
2023-03-08T22:07:17.599Z,130.43
2023-03-08T22:09:48.725Z,137.65
2023-03-08T22:12:21.152Z,123.13
2023-03-08T22:14:51.954Z,124.80
2023-03-08T22:17:22.771Z,122.72
2023-03-08T22:19:55.993Z,120.03
2023-03-08T22:22:27.210Z,126.55
2023-03-08T22:24:58.207Z,124.18
2023-03-08T22:27:29.902Z,122.20
2023-03-08T22:30:01.367Z,122.35
2023-03-08T22:32:32.364Z,125.22
2023-03-08T22:35:03.459Z,122.50
2023-03-08T22:37:34.474Z,125.13
2023-03-08T22:40:07.801Z,127.57
2023-03-08T22:42:39.059Z,118.88
2023-03-08T22:45:10.330Z,126.18
2023-03-08T22:47:41.459Z,123.28
2023-03-08T22:50:13.466Z,124.57
2023-03-08T22:52:44.214Z,122.35
2023-03-08T22:55:15.281Z,126.30
2023-03-08T22:57:46.502Z,128.02
2023-03-08T23:00:19.955Z,128.02
2023-03-08T23:02:51.381Z,124.03
2023-03-08T23:05:23.047Z,124.32
2023-03-08T23:07:56.780Z,126.15
2023-03-08T23:10:27.988Z,125.85
2023-03-08T23:12:58.957Z,124.90
2023-03-08T23:15:31.805Z,117.85
2023-03-08T23:18:02.850Z,128.25
2023-03-08T23:20:34.948Z,128.10
2023-03-08T23:23:06.044Z,128.05
2023-03-08T23:25:37.060Z,128.70
2023-03-08T23:28:08.597Z,127.50
2023-03-08T23:30:39.989Z,126.47
2023-03-08T23:33:12.807Z,138.57
2023-03-08T23:35:44.287Z,135.30
2023-03-08T23:38:20.119Z,128.77
2023-03-08T23:40:51.218Z,127.85
2023-03-08T23:43:22.845Z,135.50
2023-03-08T23:45:54.759Z,140.77
2023-03-08T23:48:25.824Z,135.00
2023-03-08T23:50:59.385Z,131.43
2023-03-08T23:53:30.206Z,134.52
2023-03-08T23:56:01.734Z,138.30
2023-03-08T23:58:43.659Z,138.98
